To NAV CANADA Home Page Login to a new session Search on AWWS site Disclaimer Vers la page française équivalente Tips FAQ What's new on the site To the Forecasts and Observations / NOTAM section To "File a Flight Plan" website Publications and other links Update of the User's profile FIC Telephone Numbers My Weather Data Folder Route Weather Data Regional Weather Data Local Weather Data To the Forecasts and Observations / NOTAM section
Request Generated 01/26/2023 at 22:52:07 UTC . Weather information available at that time is displayed.

METAR/TAF

GANDER INTL/NL    

METAR CYQX 262200Z 14027KT 20SM OVC017 M01/M03 A3004 RMK SC8 PRESFR SLP185=
METAR CYQX 262100Z 13020G26KT 20SM OVC018 M02/M05 A3014 RMK SC8 SLP218=
METAR CYQX 262000Z 12021G26KT 20SM OVC025 M03/M06 A3018 RMK SC8 PRESFR SLP234=

TAF AMD CYQX 261809Z 2618/2718 13015G25KT P6SM SCT020 OVC070 TEMPO
2618/2621 BKN020 OVC070
FM262100 15020G35KT P6SM -SN OVC030 TEMPO 2621/2701 3SM -SN
OVC015 PROB30 2622/2701 4SM -FZRA BR
FM270100 15030G45KT P6SM OVC025 TEMPO 2701/2706 3SM -RA BR
BKN008 OVC015
FM270600 18030G50KT 3SM -RA BR OVC010
FM270900 21030G45KT P6SM OVC020
FM271500 23020G30KT P6SM BKN030
RMK NXT FCST BY 270000Z=
Your time UTC time
Weather data provided by Environment Canada and NAV CANADA